Time;durP1;ratioP1;P1;durP2;ratioP2;P2;SDS_P1;SDS_P2;PMS_P1;PMS_P2;Temp;Humidity;BMP_temperature;BMP_pressure;BME280_temperature;BME280_humidity;BME280_pressure;Samples;Min_cycle;Max_cycle;Signal;HPM_P1;HPM_P2
2024/01/11 00:00:22;;;;;;;1.42;0.30;;;;;;;-7.70;89.73;102667.19;5034188;28;20683;-68
2024/01/11 00:02:49;;;;;;;2.05;1.50;;;;;;;-7.66;89.49;102663.34;5035383;28;20634;-68
2024/01/11 00:05:16;;;;;;;1.70;0.70;;;;;;;-7.55;88.83;102668.53;5035558;28;20200;-68
2024/01/11 00:07:43;;;;;;;2.20;1.63;;;;;;;-7.44;88.54;102667.59;5035089;28;20521;-68
2024/01/11 00:10:10;;;;;;;1.45;0.38;;;;;;;-7.44;88.36;102652.66;5034407;28;20847;-68
2024/01/11 00:12:36;;;;;;;1.50;0.40;;;;;;;-7.42;87.72;102660.44;5035074;28;20228;-68
2024/01/11 00:15:04;;;;;;;1.40;0.30;;;;;;;-7.33;87.24;102664.06;5035158;28;20542;-68
2024/01/11 00:17:30;;;;;;;13.50;2.10;;;;;;;-7.30;87.90;102656.75;5035434;28;20443;-68
2024/01/11 00:19:58;;;;;;;1.45;0.30;;;;;;;-7.26;88.58;102649.41;5035361;28;20544;-68
2024/01/11 00:22:25;;;;;;;1.40;0.30;;;;;;;-7.11;87.86;102637.56;5034881;28;20307;-68
2024/01/11 00:24:51;;;;;;;4.63;2.10;;;;;;;-7.03;87.62;102635.09;5034608;28;20208;-68
2024/01/11 00:27:18;;;;;;;1.50;0.60;;;;;;;-7.09;87.94;102630.34;5034777;28;20330;-68
2024/01/11 00:29:44;;;;;;;2.20;0.88;;;;;;;-7.11;88.76;102627.84;5034870;28;20295;-68
2024/01/11 00:32:11;;;;;;;1.50;0.40;;;;;;;-7.14;88.64;102628.13;5035083;28;20315;-70
2024/01/11 00:34:38;;;;;;;1.50;0.50;;;;;;;-7.07;88.13;102628.44;5034890;28;20200;-69
2024/01/11 00:37:06;;;;;;;6.00;1.25;;;;;;;-7.19;89.49;102624.22;5034904;28;20466;-69
2024/01/11 00:39:33;;;;;;;1.50;0.40;;;;;;;-7.05;89.97;102615.13;5034779;28;20212;-69
2024/01/11 00:42:00;;;;;;;5.23;1.23;;;;;;;-6.89;89.97;102602.28;5034939;28;20864;-69
2024/01/11 00:44:26;;;;;;;1.70;0.93;;;;;;;-6.73;89.75;102593.81;5035113;28;20431;-69
2024/01/11 00:46:53;;;;;;;1.50;0.40;;;;;;;-6.75;89.83;102590.50;5034943;28;20533;-69
2024/01/11 00:49:20;;;;;;;1.50;0.47;;;;;;;-6.76;90.25;102594.09;5034292;28;21002;-69
2024/01/11 00:51:46;;;;;;;1.43;0.40;;;;;;;-6.72;90.38;102582.31;5034527;28;20554;-69
2024/01/11 00:54:14;;;;;;;1.60;0.60;;;;;;;-6.74;91.41;102600.06;5034463;28;20478;-69
2024/01/11 00:56:41;;;;;;;1.67;0.50;;;;;;;-6.69;91.73;102590.75;5034648;28;20526;-69
2024/01/11 00:59:07;;;;;;;1.40;0.40;;;;;;;-6.64;91.77;102577.19;5034331;28;20542;-69
2024/01/11 01:01:34;;;;;;;1.60;0.70;;;;;;;-6.64;92.81;102600.88;5033759;28;20546;-69
2024/01/11 01:04:01;;;;;;;1.43;0.30;;;;;;;-6.63;93.70;102581.50;5034254;28;20466;-69
2024/01/11 01:06:27;;;;;;;3.30;2.33;;;;;;;-6.63;93.45;102563.88;5034064;28;20490;-69
2024/01/11 01:08:55;;;;;;;1.40;0.40;;;;;;;-6.67;93.73;102556.41;5034039;28;20533;-69
2024/01/11 01:11:23;;;;;;;2.87;0.93;;;;;;;-6.70;94.21;102538.22;5033911;28;20463;-69
2024/01/11 01:13:49;;;;;;;1.50;0.40;;;;;;;-6.70;95.00;102543.50;5034059;28;20435;-68
2024/01/11 01:16:17;;;;;;;1.50;0.50;;;;;;;-6.70;96.72;102551.41;5034518;28;20529;-70
2024/01/11 01:18:44;;;;;;;1.40;0.30;;;;;;;-6.70;97.49;102556.66;5033654;28;20443;-66
2024/01/11 01:21:11;;;;;;;1.40;0.38;;;;;;;-6.60;97.63;102546.94;5033750;28;20551;-67
2024/01/11 01:23:37;;;;;;;1.43;0.40;;;;;;;-6.53;98.01;102558.59;5033942;28;20270;-67
2024/01/11 01:26:04;;;;;;;1.50;0.60;;;;;;;-6.49;97.69;102556.53;5033642;28;20489;-68
2024/01/11 01:28:32;;;;;;;1.40;0.40;;;;;;;-6.52;98.19;102562.06;5033366;28;20578;-67
2024/01/11 01:30:59;;;;;;;1.40;0.30;;;;;;;-6.45;97.92;102556.09;5034051;28;20232;-67
2024/01/11 01:33:25;;;;;;;1.40;0.30;;;;;;;-6.35;98.17;102566.63;5033731;28;20467;-67
2024/01/11 01:35:52;;;;;;;1.50;0.40;;;;;;;-6.25;97.77;102571.88;5034042;28;20204;-67
2024/01/11 01:38:18;;;;;;;1.47;0.40;;;;;;;-6.27;97.37;102584.41;5033796;28;20479;-66
2024/01/11 01:40:45;;;;;;;1.40;0.30;;;;;;;-6.19;97.83;102568.72;5033275;28;20495;-67
2024/01/11 01:43:12;;;;;;;1.50;0.40;;;;;;;-6.16;97.68;102571.03;5033498;28;20494;-67
2024/01/11 01:45:40;;;;;;;2.37;0.93;;;;;;;-6.18;97.70;102570.38;5033856;28;20443;-68
2024/01/11 01:48:08;;;;;;;1.40;0.40;;;;;;;-6.19;97.37;102556.34;5033705;28;20487;-67
2024/01/11 01:50:35;;;;;;;1.50;0.43;;;;;;;-6.14;97.28;102561.19;5033574;28;20501;-67
2024/01/11 01:53:02;;;;;;;1.60;0.60;;;;;;;-6.17;97.44;102558.84;5033425;28;20514;-67
2024/01/11 01:55:30;;;;;;;1.40;0.37;;;;;;;-6.18;97.71;102565.09;5033754;28;20497;-67
2024/01/11 01:57:58;;;;;;;1.50;0.40;;;;;;;-6.22;98.55;102567.16;5033450;28;21130;-67
2024/01/11 02:00:26;;;;;;;1.50;0.50;;;;;;;-6.23;99.10;102576.06;5033352;28;20534;-67
2024/01/11 02:02:56;;;;;;;1.50;0.40;;;;;;;-6.20;99.42;102580.19;5033397;28;20845;-67
2024/01/11 02:05:23;;;;;;;1.43;0.30;;;;;;;-6.16;99.80;102571.88;5033158;28;20809;-67
2024/01/11 02:07:49;;;;;;;1.40;0.30;;;;;;;-6.08;99.85;102584.34;5033488;28;20573;-67
2024/01/11 02:10:17;;;;;;;1.80;1.00;;;;;;;-6.14;99.12;102590.22;5033255;28;21029;-67
2024/01/11 02:12:44;;;;;;;1.50;0.70;;;;;;;-6.29;98.90;102610.88;5033335;28;20835;-67
2024/01/11 02:15:11;;;;;;;2.07;0.93;;;;;;;-6.19;98.67;102613.53;5033251;28;20470;-66
2024/01/11 02:17:40;;;;;;;1.87;0.90;;;;;;;-6.25;99.29;102616.72;5033510;28;20522;-66
2024/01/11 02:20:10;;;;;;;2.30;1.20;;;;;;;-6.24;100.00;102610.47;5033556;28;20526;-66
2024/01/11 02:22:41;;;;;;;2.53;1.23;;;;;;;-6.18;99.81;102607.28;5033426;28;20463;-66
2024/01/11 02:25:09;;;;;;;1.40;0.40;;;;;;;-6.13;99.61;102592.69;5032979;28;20459;-66
2024/01/11 02:27:46;;;;;;;1.40;0.30;;;;;;;-6.06;99.34;102585.06;5033389;28;20478;-67
2024/01/11 02:30:14;;;;;;;2.53;1.33;;;;;;;-6.02;99.31;102604.91;5033140;28;20426;-67
2024/01/11 02:32:41;;;;;;;1.50;0.37;;;;;;;-6.03;99.42;102603.22;5033828;28;20538;-67
2024/01/11 02:35:08;;;;;;;1.40;0.30;;;;;;;-6.02;99.25;102607.53;5037292;28;20545;-68
2024/01/11 02:37:35;;;;;;;1.70;0.60;;;;;;;-6.07;99.95;102607.09;5037134;28;20510;-68
2024/01/11 02:40:02;;;;;;;1.80;1.03;;;;;;;-5.97;100.00;102599.19;5036440;28;20553;-68
2024/01/11 02:42:30;;;;;;;2.53;0.93;;;;;;;-5.90;100.00;102609.00;5036704;28;20471;-67
2024/01/11 02:44:57;;;;;;;1.50;0.40;;;;;;;-5.86;99.58;102585.81;5036740;28;20481;-67
2024/01/11 02:47:24;;;;;;;1.50;0.30;;;;;;;-5.93;100.00;102596.13;5036579;28;20523;-67
2024/01/11 02:49:51;;;;;;;1.40;0.30;;;;;;;-5.86;100.00;102573.44;5036412;28;20449;-67
2024/01/11 02:52:17;;;;;;;1.40;0.40;;;;;;;-5.81;100.00;102570.38;5036869;28;20498;-67
2024/01/11 02:54:44;;;;;;;1.40;0.30;;;;;;;-5.81;100.00;102553.72;5037056;28;20239;-67
2024/01/11 02:57:10;;;;;;;1.40;0.30;;;;;;;-5.81;100.00;102570.38;5036285;28;20898;-68
2024/01/11 02:59:40;;;;;;;2.33;0.87;;;;;;;-5.76;100.00;102556.75;5036636;28;20859;-67
2024/01/11 03:02:07;;;;;;;1.47;0.40;;;;;;;-5.75;100.00;102548.69;5036465;28;20548;-67
2024/01/11 03:04:34;;;;;;;1.50;0.40;;;;;;;-5.67;100.00;102558.50;5036504;28;20522;-67
2024/01/11 03:07:00;;;;;;;1.40;0.33;;;;;;;-5.54;100.00;102568.75;5036944;28;20518;-67
2024/01/11 03:09:27;;;;;;;1.47;0.40;;;;;;;-5.51;100.00;102587.75;5035940;28;20487;-67
2024/01/11 03:11:53;;;;;;;1.40;0.37;;;;;;;-5.46;100.00;102588.16;5035974;28;20463;-67
2024/01/11 03:14:20;;;;;;;1.50;0.30;;;;;;;-5.42;100.00;102586.88;5036399;28;20467;-67
2024/01/11 03:16:48;;;;;;;1.43;0.37;;;;;;;-5.35;100.00;102574.78;5035964;28;20939;-67
2024/01/11 03:19:15;;;;;;;1.47;0.30;;;;;;;-5.36;100.00;102585.47;5036190;28;20522;-67
2024/01/11 03:21:43;;;;;;;2.00;1.03;;;;;;;-5.41;100.00;102583.25;5036108;28;20509;-67
2024/01/11 03:24:09;;;;;;;1.80;0.60;;;;;;;-5.45;100.00;102573.13;5035759;28;20530;-67
2024/01/11 03:26:36;;;;;;;2.10;0.77;;;;;;;-5.25;100.00;102569.44;5035700;28;20470;-67
2024/01/11 03:29:03;;;;;;;1.50;0.30;;;;;;;-5.14;100.00;102558.66;5035945;28;20552;-67
2024/01/11 03:31:29;;;;;;;2.80;2.40;;;;;;;-5.13;99.81;102567.44;5036156;28;20545;-68
2024/01/11 03:33:57;;;;;;;1.50;0.30;;;;;;;-5.04;99.62;102563.91;5035932;28;20501;-68
2024/01/11 03:36:24;;;;;;;1.40;0.30;;;;;;;-4.98;99.57;102557.19;5035880;28;20504;-68
2024/01/11 03:38:51;;;;;;;1.40;0.30;;;;;;;-4.93;99.50;102539.06;5035428;28;20455;-68
2024/01/11 03:41:18;;;;;;;1.50;0.37;;;;;;;-4.93;99.30;102537.25;5035928;28;20526;-68
2024/01/11 03:43:44;;;;;;;1.50;0.40;;;;;;;-4.91;99.80;102539.75;5035637;28;20439;-68
2024/01/11 03:46:11;;;;;;;1.50;0.30;;;;;;;-4.89;99.96;102519.28;5035506;28;20497;-67
2024/01/11 03:48:38;;;;;;;1.50;0.40;;;;;;;-4.87;100.00;102512.88;5035524;28;20518;-68
2024/01/11 03:51:06;;;;;;;1.47;0.30;;;;;;;-4.83;100.00;102510.75;5035552;28;20471;-68
2024/01/11 03:53:35;;;;;;;1.50;0.57;;;;;;;-4.88;100.00;102511.19;5035188;28;20915;-67
2024/01/11 03:56:02;;;;;;;1.50;0.30;;;;;;;-4.85;100.00;102512.72;5035561;28;20478;-67
2024/01/11 03:58:29;;;;;;;2.07;0.80;;;;;;;-4.86;100.00;102511.88;5035460;28;20439;-67
2024/01/11 04:00:55;;;;;;;2.83;0.80;;;;;;;-4.79;100.00;102519.19;5035489;28;20534;-68
2024/01/11 04:03:22;;;;;;;2.43;0.60;;;;;;;-4.77;100.00;102520.72;5035012;28;20491;-67
2024/01/11 04:05:49;;;;;;;1.50;0.30;;;;;;;-4.73;100.00;102521.25;5035239;28;20442;-67
2024/01/11 04:08:17;;;;;;;1.50;0.30;;;;;;;-4.73;100.00;102518.59;5035221;28;20518;-67
2024/01/11 04:10:43;;;;;;;1.50;0.50;;;;;;;-4.75;100.00;102520.56;5035497;28;20478;-68
2024/01/11 04:13:10;;;;;;;1.43;0.30;;;;;;;-4.72;100.00;102517.63;5035292;28;20930;-68
2024/01/11 04:15:36;;;;;;;1.40;0.40;;;;;;;-4.75;100.00;102512.63;5035055;28;20448;-68
2024/01/11 04:18:03;;;;;;;1.43;0.30;;;;;;;-4.75;100.00;102510.81;5035198;28;20947;-70
2024/01/11 04:20:30;;;;;;;1.43;0.30;;;;;;;-4.83;100.00;102500.16;5035167;28;20457;-69
2024/01/11 04:22:57;;;;;;;1.40;0.30;;;;;;;-4.80;100.00;102521.00;5035005;28;20505;-66
2024/01/11 04:25:25;;;;;;;1.43;0.30;;;;;;;-4.71;100.00;102516.63;5034633;28;20439;-72
2024/01/11 04:27:52;;;;;;;1.40;0.30;;;;;;;-4.72;100.00;102526.38;5035141;28;20447;-68
2024/01/11 04:30:18;;;;;;;1.40;0.30;;;;;;;-4.68;100.00;102519.81;5035549;28;20529;-68
2024/01/11 04:32:45;;;;;;;1.40;0.30;;;;;;;-4.61;100.00;102512.06;5034695;28;20558;-68
2024/01/11 04:35:11;;;;;;;1.40;0.30;;;;;;;-4.60;100.00;102514.59;5034520;28;20478;-68
2024/01/11 04:37:38;;;;;;;1.40;0.30;;;;;;;-4.53;100.00;102501.56;5034583;28;20443;-69
2024/01/11 04:40:07;;;;;;;1.53;0.53;;;;;;;-4.46;100.00;102510.56;5034601;28;20447;-69
2024/01/11 04:42:35;;;;;;;1.40;0.40;;;;;;;-4.44;100.00;102518.31;5034445;28;20546;-69
2024/01/11 04:45:02;;;;;;;1.40;0.30;;;;;;;-4.36;100.00;102526.31;5034754;28;20791;-69
2024/01/11 04:47:29;;;;;;;1.40;0.30;;;;;;;-4.29;100.00;102522.09;5034783;28;20447;-69
2024/01/11 04:49:55;;;;;;;1.40;0.30;;;;;;;-4.27;100.00;102503.41;5034415;28;20545;-69
2024/01/11 04:52:22;;;;;;;1.40;0.30;;;;;;;-4.22;100.00;102490.53;5034014;28;20522;-69
2024/01/11 04:54:49;;;;;;;1.43;0.30;;;;;;;-4.20;100.00;102505.28;5034301;28;20526;-69
2024/01/11 04:57:16;;;;;;;1.40;0.30;;;;;;;-4.16;100.00;102505.78;5033478;28;20435;-69
2024/01/11 04:59:44;;;;;;;1.50;0.50;;;;;;;-4.06;100.00;102491.47;5034291;28;20439;-69
2024/01/11 05:02:11;;;;;;;1.47;0.40;;;;;;;-3.99;100.00;102485.53;5034358;28;20553;-68
2024/01/11 05:04:37;;;;;;;1.40;0.30;;;;;;;-4.01;100.00;102477.78;5033843;28;20486;-68
2024/01/11 05:07:04;;;;;;;1.50;0.30;;;;;;;-3.93;100.00;102440.75;5034136;28;20526;-68
2024/01/11 05:09:31;;;;;;;2.83;1.03;;;;;;;-3.94;100.00;102464.72;5034370;28;20577;-69
2024/01/11 05:11:58;;;;;;;1.50;0.40;;;;;;;-3.96;100.00;102479.94;5034324;28;20528;-69
2024/01/11 05:14:24;;;;;;;1.80;0.90;;;;;;;-3.96;100.00;102488.72;5034044;28;20522;-69
2024/01/11 05:16:52;;;;;;;1.47;0.40;;;;;;;-3.97;100.00;102500.28;5034080;28;20533;-69
2024/01/11 05:19:19;;;;;;;1.43;0.30;;;;;;;-3.91;100.00;102482.94;5034147;28;20431;-69
2024/01/11 05:21:45;;;;;;;1.43;0.30;;;;;;;-3.83;100.00;102477.69;5033930;28;20837;-69
2024/01/11 05:24:12;;;;;;;1.43;0.30;;;;;;;-3.78;100.00;102487.78;5033677;28;20500;-69
2024/01/11 05:26:39;;;;;;;1.50;0.30;;;;;;;-3.75;100.00;102488.31;5034181;28;20538;-69
2024/01/11 05:29:05;;;;;;;1.53;0.60;;;;;;;-3.69;100.00;102482.38;5033800;28;20483;-69
2024/01/11 05:31:32;;;;;;;1.50;0.40;;;;;;;-3.71;100.00;102494.13;5033655;28;20467;-69
2024/01/11 05:34:00;;;;;;;1.40;0.30;;;;;;;-3.69;100.00;102492.13;5033686;28;20534;-68
2024/01/11 05:36:27;;;;;;;1.50;0.40;;;;;;;-3.63;100.00;102495.00;5033365;28;20443;-68
2024/01/11 05:38:53;;;;;;;2.07;0.70;;;;;;;-3.60;100.00;102485.88;5057993;22;20584;-69
2024/01/11 05:41:20;;;;;;;1.50;0.30;;;;;;;-3.61;100.00;102490.34;5053344;28;20468;-70
2024/01/11 05:43:46;;;;;;;2.13;1.53;;;;;;;-3.59;100.00;102490.19;5053496;28;20504;-70
2024/01/11 05:46:13;;;;;;;2.63;1.77;;;;;;;-3.57;100.00;102485.56;5053213;28;20438;-70
2024/01/11 05:48:40;;;;;;;1.50;0.33;;;;;;;-3.56;100.00;102479.28;5053088;28;20831;-70
2024/01/11 05:51:09;;;;;;;1.47;0.30;;;;;;;-3.53;100.00;102465.72;5053142;28;20482;-70
2024/01/11 05:53:35;;;;;;;1.50;0.40;;;;;;;-3.47;100.00;102470.34;5052849;28;21018;-71
2024/01/11 05:56:03;;;;;;;1.50;0.30;;;;;;;-3.48;100.00;102474.00;5053619;28;20439;-71
2024/01/11 05:58:29;;;;;;;3.30;0.70;;;;;;;-3.42;100.00;102469.88;5053009;28;20438;-72
2024/01/11 06:00:56;;;;;;;1.50;0.30;;;;;;;-3.42;100.00;102470.69;5053090;28;20549;-71
2024/01/11 06:03:23;;;;;;;1.60;0.50;;;;;;;-3.37;100.00;102481.63;5053373;28;20494;-71
2024/01/11 06:05:50;;;;;;;1.60;0.70;;;;;;;-3.36;100.00;102482.50;5053539;28;20797;-71
2024/01/11 06:08:18;;;;;;;1.60;0.50;;;;;;;-3.43;100.00;102490.25;5055108;28;20537;-71
2024/01/11 06:10:44;;;;;;;1.50;0.40;;;;;;;-3.37;100.00;102497.53;5057525;28;20552;-72
2024/01/11 06:13:11;;;;;;;1.47;0.30;;;;;;;-3.31;100.00;102504.03;5057235;28;21011;-72
2024/01/11 06:15:38;;;;;;;1.47;0.30;;;;;;;-3.26;100.00;102487.63;5056970;28;20445;-71
2024/01/11 06:18:05;;;;;;;1.60;0.67;;;;;;;-3.23;100.00;102466.97;5057297;28;20488;-71
2024/01/11 06:20:32;;;;;;;1.40;0.30;;;;;;;-3.16;100.00;102456.50;5057220;28;20444;-72
2024/01/11 06:22:58;;;;;;;1.43;0.30;;;;;;;-3.12;100.00;102471.09;5057150;28;20482;-72
2024/01/11 06:25:27;;;;;;;1.40;0.30;;;;;;;-3.07;100.00;102471.44;5057513;28;20529;-71
2024/01/11 06:27:54;;;;;;;1.50;0.30;;;;;;;-3.06;100.00;102481.03;5056859;28;21021;-71
2024/01/11 06:30:21;;;;;;;1.43;0.30;;;;;;;-3.06;100.00;102473.06;5057370;28;20477;-71
2024/01/11 06:32:48;;;;;;;1.50;0.40;;;;;;;-3.01;100.00;102469.94;5057303;28;20490;-71
2024/01/11 06:35:14;;;;;;;2.53;1.17;;;;;;;-3.03;100.00;102461.34;5057749;28;20442;-72
2024/01/11 06:37:41;;;;;;;1.43;0.30;;;;;;;-3.00;100.00;102467.13;5057096;28;20860;-72
2024/01/11 06:40:08;;;;;;;3.60;0.73;;;;;;;-2.97;100.00;102474.75;5056572;28;20446;-72
2024/01/11 06:42:36;;;;;;;1.50;0.40;;;;;;;-2.97;100.00;102477.41;5056970;28;20468;-72
2024/01/11 06:45:03;;;;;;;1.90;1.00;;;;;;;-2.94;100.00;102481.56;5056987;28;20450;-72
2024/01/11 06:47:30;;;;;;;2.37;2.00;;;;;;;-2.89;100.00;102461.50;5056944;28;20974;-72
2024/01/11 06:49:57;;;;;;;1.50;0.40;;;;;;;-2.84;100.00;102469.78;5056744;28;20572;-71
2024/01/11 06:52:23;;;;;;;2.23;0.83;;;;;;;-2.83;100.00;102476.75;5056802;28;20546;-71
2024/01/11 06:54:50;;;;;;;1.70;0.60;;;;;;;-2.75;100.00;102470.59;5056986;28;20438;-70
2024/01/11 06:57:16;;;;;;;2.23;0.97;;;;;;;-2.76;100.00;102455.69;5057115;28;20482;-72
2024/01/11 06:59:46;;;;;;;1.50;0.30;;;;;;;-2.75;100.00;102459.19;5056395;28;20438;-72
2024/01/11 07:02:12;;;;;;;1.50;0.37;;;;;;;-2.73;100.00;102447.41;5056231;28;20468;-73
2024/01/11 07:04:44;;;;;;;1.47;0.30;;;;;;;-2.70;100.00;102443.59;5057018;28;20533;-68
2024/01/11 07:07:10;;;;;;;2.53;1.17;;;;;;;-2.74;100.00;102452.91;5056781;28;20415;-69
2024/01/11 07:09:37;;;;;;;1.50;0.30;;;;;;;-2.69;100.00;102443.44;5056649;28;20592;-72
2024/01/11 07:12:04;;;;;;;4.00;1.60;;;;;;;-2.66;100.00;102440.44;5056342;28;20466;-72
2024/01/11 07:14:31;;;;;;;1.60;0.60;;;;;;;-2.62;100.00;102444.41;5057098;28;20434;-70
2024/01/11 07:16:59;;;;;;;2.63;0.80;;;;;;;-2.62;100.00;102473.59;5056294;28;20843;-71
2024/01/11 07:19:26;;;;;;;1.73;0.80;;;;;;;-2.62;100.00;102470.09;5055678;28;20438;-71
2024/01/11 07:21:53;;;;;;;1.50;0.47;;;;;;;-2.63;100.00;102457.84;5056445;28;20904;-70
2024/01/11 07:24:19;;;;;;;1.43;0.30;;;;;;;-2.65;100.00;102455.38;5055735;28;20438;-69
2024/01/11 07:26:46;;;;;;;8.80;3.00;;;;;;;-2.64;100.00;102461.50;5056046;28;20444;-71
2024/01/11 07:29:12;;;;;;;1.50;0.40;;;;;;;-2.64;100.00;102445.59;5055904;28;20573;-71
2024/01/11 07:31:39;;;;;;;1.60;0.67;;;;;;;-2.61;100.00;102448.75;5056030;28;20462;-71
2024/01/11 07:34:07;;;;;;;1.60;0.57;;;;;;;-2.55;100.00;102437.44;5056012;28;20469;-71
2024/01/11 07:36:33;;;;;;;1.40;0.30;;;;;;;-2.53;100.00;102445.22;5056100;28;20518;-73
2024/01/11 07:39:00;;;;;;;2.63;2.10;;;;;;;-2.53;100.00;102448.69;5055690;28;20529;-71
2024/01/11 07:41:27;;;;;;;1.50;0.40;;;;;;;-2.51;100.00;102459.16;5055733;28;20498;-71
2024/01/11 07:43:58;;;;;;;1.50;0.40;;;;;;;-2.54;100.00;102467.44;5055999;28;20808;-71
2024/01/11 07:46:24;;;;;;;1.50;0.40;;;;;;;-2.56;100.00;102459.69;5055875;28;20427;-71
2024/01/11 07:48:51;;;;;;;1.40;0.30;;;;;;;-2.55;100.00;102471.09;5055591;28;20890;-71
2024/01/11 07:51:20;;;;;;;1.50;0.40;;;;;;;-2.58;100.00;102472.25;5055780;28;20526;-71
2024/01/11 07:53:47;;;;;;;1.57;0.50;;;;;;;-2.60;100.00;102465.47;5055521;28;20491;-71
2024/01/11 07:56:13;;;;;;;5.50;1.50;;;;;;;-2.57;100.00;102441.25;5055290;28;20446;-71
2024/01/11 07:58:41;;;;;;;1.43;0.30;;;;;;;-2.61;100.00;102426.69;5055375;28;20441;-71
2024/01/11 08:01:08;;;;;;;2.60;1.17;;;;;;;-2.65;100.00;102433.34;5055306;28;20434;-71
2024/01/11 08:03:35;;;;;;;1.60;0.60;;;;;;;-2.59;100.00;102441.44;5055766;28;20886;-71
2024/01/11 08:06:02;;;;;;;1.47;0.30;;;;;;;-2.53;100.00;102442.56;5055662;28;20465;-71
2024/01/11 08:08:30;;;;;;;1.40;0.40;;;;;;;-2.53;100.00;102442.56;5055005;28;20985;-70
2024/01/11 08:10:56;;;;;;;1.90;0.83;;;;;;;-2.54;100.00;102449.72;5055328;28;20953;-71
2024/01/11 08:13:23;;;;;;;2.43;0.70;;;;;;;-2.52;100.00;102431.00;5055400;28;20466;-71
2024/01/11 08:15:50;;;;;;;10.50;2.40;;;;;;;-2.53;100.00;102437.28;5055266;28;20466;-71
2024/01/11 08:18:19;;;;;;;4.27;2.80;;;;;;;-2.55;100.00;102442.75;5054947;28;20446;-71
2024/01/11 08:20:46;;;;;;;3.93;0.90;;;;;;;-2.48;100.00;102445.53;5055009;28;20502;-71
2024/01/11 08:23:12;;;;;;;5.33;1.67;;;;;;;-2.44;100.00;102435.44;5055066;28;20474;-71
2024/01/11 08:25:40;;;;;;;1.50;0.30;;;;;;;-2.42;100.00;102430.81;5054928;28;20476;-70
2024/01/11 08:28:07;;;;;;;1.60;0.77;;;;;;;-2.39;100.00;102444.56;5054834;28;20438;-70
2024/01/11 08:30:33;;;;;;;1.47;0.30;;;;;;;-2.34;100.00;102439.56;5053846;28;20981;-71
2024/01/11 08:33:00;;;;;;;1.50;0.50;;;;;;;-2.28;100.00;102446.03;5054630;28;20490;-71
2024/01/11 08:35:27;;;;;;;1.47;0.40;;;;;;;-2.25;100.00;102439.56;5054686;28;20438;-71
2024/01/11 08:37:54;;;;;;;1.50;0.43;;;;;;;-2.26;100.00;102432.56;5054508;28;20454;-71
2024/01/11 08:40:20;;;;;;;1.80;1.03;;;;;;;-2.29;100.00;102426.63;5054350;28;20887;-70
2024/01/11 08:42:48;;;;;;;3.10;1.07;;;;;;;-2.19;100.00;102425.59;5054804;28;20516;-71
2024/01/11 08:45:17;;;;;;;1.43;0.30;;;;;;;-2.22;100.00;102429.41;5054478;28;20517;-71
2024/01/11 08:47:44;;;;;;;1.70;0.93;;;;;;;-2.11;100.00;102430.88;5054144;28;20946;-71
2024/01/11 08:50:13;;;;;;;1.50;0.40;;;;;;;-2.13;100.00;102430.19;5054635;28;20564;-71
2024/01/11 08:52:40;;;;;;;1.50;0.30;;;;;;;-2.09;100.00;102437.66;5054626;28;20545;-71
2024/01/11 08:55:07;;;;;;;1.50;0.50;;;;;;;-2.07;100.00;102424.22;5054325;28;20489;-71
2024/01/11 08:57:35;;;;;;;4.03;1.90;;;;;;;-2.04;100.00;102423.88;5054378;28;20852;-71
2024/01/11 09:00:06;;;;;;;1.50;0.40;;;;;;;-1.97;100.00;102427.50;5054494;28;20446;-71
2024/01/11 09:02:32;;;;;;;1.80;0.90;;;;;;;-1.90;100.00;102414.38;5053708;28;20458;-70
2024/01/11 09:04:59;;;;;;;1.50;0.30;;;;;;;-1.91;100.00;102396.75;5050317;28;20950;-71
2024/01/11 09:07:25;;;;;;;2.53;2.00;;;;;;;-1.91;100.00;102394.94;5053749;28;20873;-70
2024/01/11 09:09:54;;;;;;;1.60;0.50;;;;;;;-1.83;100.00;102392.25;5054067;28;20560;-71
2024/01/11 09:12:21;;;;;;;1.80;0.80;;;;;;;-1.75;100.00;102390.56;5053717;28;20467;-69
2024/01/11 09:14:48;;;;;;;6.70;1.60;;;;;;;-1.72;100.00;102392.88;5053593;28;20450;-69
2024/01/11 09:17:16;;;;;;;10.50;1.50;;;;;;;-1.74;100.00;102397.50;5053978;28;20528;-69
2024/01/11 09:19:42;;;;;;;1.40;0.30;;;;;;;-1.74;100.00;102387.72;5053744;28;20434;-70
2024/01/11 09:22:09;;;;;;;1.60;0.60;;;;;;;-1.73;100.00;102386.69;5053993;28;20501;-69
2024/01/11 09:24:36;;;;;;;1.60;0.73;;;;;;;-1.73;100.00;102375.25;5053837;28;20452;-69
2024/01/11 09:27:03;;;;;;;2.83;0.83;;;;;;;-1.84;100.00;102389.78;5053452;28;20438;-72
2024/01/11 09:29:30;;;;;;;2.13;0.70;;;;;;;-1.87;100.00;102409.53;5053604;28;20446;-70
2024/01/11 09:31:57;;;;;;;2.50;0.57;;;;;;;-1.85;100.00;102410.19;5053425;28;20454;-68
2024/01/11 09:34:25;;;;;;;2.13;1.07;;;;;;;-1.94;100.00;102411.22;5054166;28;20442;-68
2024/01/11 09:36:52;;;;;;;1.57;0.40;;;;;;;-1.90;100.00;102393.13;5053926;28;20442;-67
2024/01/11 09:39:18;;;;;;;2.80;0.60;;;;;;;-1.91;100.00;102399.41;5053638;28;21044;-71
2024/01/11 09:41:52;;;;;;;1.47;0.40;;;;;;;-1.91;100.00;102392.28;5053542;28;20486;-70
2024/01/11 09:44:20;;;;;;;2.00;0.73;;;;;;;-1.81;100.00;102400.06;5053808;28;20816;-72
2024/01/11 09:46:47;;;;;;;7.33;1.83;;;;;;;-1.79;100.00;102406.00;5053425;28;20438;-75
2024/01/11 09:49:15;;;;;;;2.10;1.80;;;;;;;-1.81;100.00;102418.66;5053567;28;20831;-74
2024/01/11 09:51:46;;;;;;;2.80;2.33;;;;;;;-1.72;100.00;102424.75;5053609;28;20490;-72
2024/01/11 09:54:15;;;;;;;3.22;1.35;;;;;;;-1.70;100.00;102428.03;5053338;28;20466;-71
2024/01/11 09:56:42;;;;;;;3.23;2.27;;;;;;;-1.65;100.00;102431.81;5053823;28;20306;-74
2024/01/11 09:59:10;;;;;;;1.80;0.83;;;;;;;-1.59;100.00;102425.00;5052206;28;20453;-70
2024/01/11 10:01:37;;;;;;;2.80;1.77;;;;;;;-1.47;100.00;102417.44;5053638;28;20457;-70
2024/01/11 10:04:04;;;;;;;1.50;0.40;;;;;;;-1.43;100.00;102418.75;5053438;28;20438;-73
2024/01/11 10:06:34;;;;;;;8.33;3.33;;;;;;;-1.46;100.00;102419.94;5053720;28;20529;-73
2024/01/11 10:09:02;;;;;;;1.80;0.80;;;;;;;-1.31;100.00;102415.50;5053344;28;20438;-73
2024/01/11 10:11:29;;;;;;;1.90;0.77;;;;;;;-1.29;100.00;102426.78;5053029;28;20481;-73
2024/01/11 10:13:57;;;;;;;2.23;0.90;;;;;;;-1.23;100.00;102430.59;5053023;28;20529;-73
2024/01/11 10:16:24;;;;;;;2.03;0.80;;;;;;;-1.16;100.00;102425.38;5053710;28;20449;-73
2024/01/11 10:18:51;;;;;;;1.60;0.60;;;;;;;-1.04;100.00;102413.31;5053350;28;20491;-73
2024/01/11 10:21:17;;;;;;;1.60;0.50;;;;;;;-0.93;100.00;102407.59;5053126;28;20528;-73
2024/01/11 10:23:45;;;;;;;1.47;0.30;;;;;;;-0.90;100.00;102404.53;5053210;28;20500;-73
2024/01/11 10:26:16;;;;;;;2.17;1.73;;;;;;;-0.87;100.00;102398.88;5053386;28;20488;-73
2024/01/11 10:28:45;;;;;;;4.03;1.00;;;;;;;-0.84;100.00;102395.88;5053401;28;20510;-72
2024/01/11 10:31:12;;;;;;;4.10;1.40;;;;;;;-0.84;100.00;102379.91;5052954;28;20509;-72
2024/01/11 10:33:38;;;;;;;3.30;1.80;;;;;;;-0.79;100.00;102371.38;5053475;28;20470;-73
2024/01/11 10:36:07;;;;;;;10.07;0.80;;;;;;;-0.79;100.00;102374.88;5053356;28;20513;-73
2024/01/11 10:38:37;;;;;;;1.70;0.83;;;;;;;-0.74;100.00;102374.31;5051515;28;20455;-75
2024/01/11 10:41:07;;;;;;;1.50;0.40;;;;;;;-0.76;100.00;102378.97;5053021;28;20465;-75
2024/01/11 10:43:38;;;;;;;1.63;0.50;;;;;;;-0.80;100.00;102377.69;5052755;28;20972;-74
2024/01/11 10:46:07;;;;;;;2.37;1.37;;;;;;;-0.83;100.00;102386.88;5053160;28;20525;-74
2024/01/11 10:48:38;;;;;;;1.50;0.50;;;;;;;-0.78;100.00;102392.47;5052790;28;20919;-74
2024/01/11 10:51:09;;;;;;;8.10;1.93;;;;;;;-0.80;100.00;102383.84;5052523;28;20502;-74
2024/01/11 10:53:42;;;;;;;1.57;0.43;;;;;;;-0.86;100.00;102397.03;5053104;28;20450;-74
2024/01/11 10:56:11;;;;;;;1.70;0.67;;;;;;;-0.86;100.00;102389.88;5056682;28;20454;-74
2024/01/11 10:58:41;;;;;;;2.07;0.83;;;;;;;-0.82;100.00;102385.84;5056401;28;20902;-74
2024/01/11 11:01:10;;;;;;;4.87;1.83;;;;;;;-0.75;100.00;102388.63;5056609;28;20431;-74
2024/01/11 11:03:38;;;;;;;1.70;0.77;;;;;;;-0.69;100.00;102387.06;5056585;28;20466;-74
2024/01/11 11:06:06;;;;;;;1.50;0.30;;;;;;;-0.71;100.00;102381.09;5056692;28;20926;-74
2024/01/11 11:08:34;;;;;;;1.43;0.30;;;;;;;-0.72;100.00;102376.78;5056725;28;20434;-74
2024/01/11 11:11:03;;;;;;;2.27;0.97;;;;;;;-0.79;100.00;102374.88;5056606;28;20517;-74
2024/01/11 11:13:30;;;;;;;2.50;1.33;;;;;;;-0.72;100.00;102376.78;5056429;28;20438;-74
2024/01/11 11:15:58;;;;;;;2.53;2.10;;;;;;;-0.76;100.00;102366.50;5056433;28;20837;-74
2024/01/11 11:18:25;;;;;;;1.50;0.50;;;;;;;-0.78;100.00;102371.19;5056276;28;20529;-74